Time;durP1;ratioP1;P1;durP2;ratioP2;P2;SDS_P1;SDS_P2;PMS_P1;PMS_P2;Temp;Humidity;BMP_temperature;BMP_pressure;BME280_temperature;BME280_humidity;BME280_pressure;Samples;Min_cycle;Max_cycle;Signal;HPM_P1;HPM_P2
2023/09/15 00:01:28;;;;;;;4.95;2.72;;;16.20;99.90;;;;;;5096601;27;20039;-80
2023/09/15 00:03:54;;;;;;;5.63;2.90;;;16.20;99.90;;;;;;5121190;27;20089;-81
2023/09/15 00:06:20;;;;;;;4.15;2.67;;;16.20;99.90;;;;;;5122318;27;20130;-81
2023/09/15 00:08:45;;;;;;;5.18;2.55;;;16.10;99.90;;;;;;5083604;27;20035;-81
2023/09/15 00:11:15;;;;;;;6.10;2.65;;;16.10;99.90;;;;;;5100081;27;21606;-81
2023/09/15 00:13:41;;;;;;;5.80;2.75;;;16.10;99.90;;;;;;5084072;27;20050;-80
2023/09/15 00:16:07;;;;;;;6.60;2.60;;;16.00;99.90;;;;;;5106924;27;20034;-82
2023/09/15 00:18:33;;;;;;;7.28;2.78;;;16.00;99.90;;;;;;5098569;27;20043;-81
2023/09/15 00:20:59;;;;;;;4.30;2.50;;;16.00;99.90;;;;;;5089834;27;20042;-82
2023/09/15 00:23:25;;;;;;;4.65;2.80;;;16.00;99.90;;;;;;5113744;27;20032;-81
2023/09/15 00:25:54;;;;;;;4.35;2.35;;;15.90;99.90;;;;;;5121067;27;20516;-81
2023/09/15 00:28:20;;;;;;;7.32;2.83;;;15.90;99.90;;;;;;5089502;27;20072;-80
2023/09/15 00:30:50;;;;;;;5.53;2.67;;;15.90;99.90;;;;;;5094021;27;20053;-80
2023/09/15 00:33:16;;;;;;;4.20;2.58;;;15.90;99.90;;;;;;5083525;27;20050;-80
2023/09/15 00:35:42;;;;;;;4.50;2.55;;;15.90;99.90;;;;;;5111933;27;20510;-79
2023/09/15 00:38:07;;;;;;;6.38;3.15;;;15.90;99.90;;;;;;5108968;27;20050;-80
2023/09/15 00:40:33;;;;;;;3.60;2.50;;;15.90;99.90;;;;;;5101780;27;20475;-80
2023/09/15 00:42:59;;;;;;;4.75;2.83;;;15.80;99.90;;;;;;5116442;27;20047;-80
2023/09/15 00:45:25;;;;;;;4.72;2.47;;;15.80;99.90;;;;;;5101134;27;20118;-79
2023/09/15 00:48:00;;;;;;;5.60;2.88;;;15.80;99.90;;;;;;5108484;27;20042;-80
2023/09/15 00:50:29;;;;;;;5.63;2.75;;;15.80;99.90;;;;;;5105348;27;20583;-79
2023/09/15 00:53:04;;;;;;;6.15;2.95;;;15.80;99.90;;;;;;5118849;27;20034;-81
2023/09/15 00:55:35;;;;;;;6.95;2.80;;;15.80;99.90;;;;;;5098821;27;20035;-80
2023/09/15 00:58:03;;;;;;;4.63;2.72;;;15.70;99.90;;;;;;5124832;27;20042;-80
2023/09/15 01:00:30;;;;;;;4.22;2.25;;;15.70;99.90;;;;;;5108081;27;20055;-80
2023/09/15 01:02:56;;;;;;;4.25;2.83;;;15.70;99.90;;;;;;5106059;27;20480;-79
2023/09/15 01:05:23;;;;;;;7.85;3.10;;;15.60;99.90;;;;;;5106929;27;20497;-80
2023/09/15 01:07:52;;;;;;;6.22;2.75;;;15.60;99.90;;;;;;5112162;27;20425;-79
2023/09/15 01:10:21;;;;;;;6.78;3.00;;;15.60;99.90;;;;;;5104307;27;20359;-80
2023/09/15 01:12:48;;;;;;;4.32;2.88;;;15.60;99.90;;;;;;5085069;27;20043;-80
2023/09/15 01:15:16;;;;;;;6.47;2.70;;;15.60;99.90;;;;;;5101522;27;20034;-84
2023/09/15 01:17:58;;;;;;;3.90;3.13;;;15.60;99.90;;;;;;5122847;27;20456;-84
2023/09/15 01:20:27;;;;;;;6.65;3.17;;;15.60;99.90;;;;;;5140991;27;20099;-82
2023/09/15 01:23:17;;;;;;;5.07;3.03;;;15.60;99.90;;;;;;5101532;27;20062;-81
2023/09/15 01:26:20;;;;;;;4.78;2.83;;;15.60;99.90;;;;;;5101492;27;20478;-82
2023/09/15 01:29:05;;;;;;;10.63;2.95;;;15.50;99.90;;;;;;5120178;27;20034;-81
2023/09/15 01:31:30;;;;;;;5.38;3.33;;;15.50;99.90;;;;;;5106280;27;20122;-82
2023/09/15 01:33:56;;;;;;;7.70;2.63;;;15.50;99.90;;;;;;5066434;27;20138;-82
2023/09/15 01:36:22;;;;;;;3.60;2.70;;;15.40;99.90;;;;;;5083240;27;20118;-83
2023/09/15 01:38:48;;;;;;;4.65;2.90;;;15.40;99.90;;;;;;5101910;27;20130;-82
2023/09/15 01:41:13;;;;;;;4.88;3.17;;;15.50;99.90;;;;;;5103369;27;20067;-81
2023/09/15 01:43:39;;;;;;;4.68;3.38;;;15.40;99.90;;;;;;5107240;27;20038;-81
2023/09/15 01:46:05;;;;;;;4.55;2.90;;;15.40;99.90;;;;;;5083832;27;20425;-81
2023/09/15 01:48:32;;;;;;;4.85;3.28;;;15.40;99.90;;;;;;5068514;27;20039;-81
2023/09/15 01:50:59;;;;;;;7.45;3.65;;;15.40;99.90;;;;;;5125476;27;20058;-82
2023/09/15 01:53:25;;;;;;;4.82;3.25;;;15.40;99.90;;;;;;5121119;27;20067;-79
2023/09/15 01:55:51;;;;;;;5.15;3.40;;;15.30;99.90;;;;;;5109776;27;20099;-82
2023/09/15 01:58:18;;;;;;;8.95;3.45;;;15.40;99.90;;;;;;5104131;27;20472;-81
2023/09/15 02:00:45;;;;;;;5.30;3.20;;;15.30;99.90;;;;;;5091554;27;20070;-81
2023/09/15 02:03:12;;;;;;;8.25;3.80;;;15.30;99.90;;;;;;5102035;27;20043;-80
2023/09/15 02:05:38;;;;;;;5.75;3.53;;;15.30;99.90;;;;;;5098392;27;20043;-81
2023/09/15 02:08:04;;;;;;;6.25;3.38;;;15.30;99.90;;;;;;5108939;27;21170;-80
2023/09/15 02:10:30;;;;;;;8.15;3.40;;;15.30;99.90;;;;;;5105169;27;20171;-80
2023/09/15 02:12:55;;;;;;;6.50;3.20;;;15.30;99.90;;;;;;5114074;27;20522;-81
2023/09/15 02:15:21;;;;;;;5.25;3.28;;;15.30;99.90;;;;;;5067784;27;20032;-80
2023/09/15 02:17:50;;;;;;;7.80;3.78;;;15.30;99.90;;;;;;5104196;27;20053;-80
2023/09/15 02:20:18;;;;;;;4.22;3.30;;;15.30;99.90;;;;;;5102030;27;20497;-82
2023/09/15 02:22:45;;;;;;;6.25;3.30;;;15.30;99.90;;;;;;5108554;27;20141;-82
2023/09/15 02:25:11;;;;;;;5.07;3.00;;;15.30;99.90;;;;;;5105970;27;20046;-80
2023/09/15 02:27:40;;;;;;;5.10;3.20;;;15.30;99.90;;;;;;5112686;27;20039;-82
2023/09/15 02:30:06;;;;;;;6.25;3.65;;;15.30;99.90;;;;;;5131723;27;20122;-82
2023/09/15 02:32:32;;;;;;;6.25;3.47;;;15.20;99.90;;;;;;5134585;27;20061;-83
2023/09/15 02:34:58;;;;;;;5.63;3.58;;;15.20;99.90;;;;;;5116416;27;20122;-82
2023/09/15 02:37:24;;;;;;;5.90;3.40;;;15.20;99.90;;;;;;5111895;27;20121;-81
2023/09/15 02:39:50;;;;;;;5.65;3.63;;;15.20;99.90;;;;;;5119450;27;20031;-80
2023/09/15 02:42:15;;;;;;;4.78;3.30;;;15.20;99.90;;;;;;5086195;27;20034;-81
2023/09/15 02:44:44;;;;;;;9.23;4.00;;;15.20;99.90;;;;;;5088270;27;20063;-81
2023/09/15 02:47:10;;;;;;;8.90;3.53;;;15.20;99.90;;;;;;5118602;27;20027;-83
2023/09/15 02:49:36;;;;;;;5.18;3.85;;;15.20;99.90;;;;;;5099035;27;20046;-81
2023/09/15 02:52:01;;;;;;;7.25;4.40;;;15.20;99.90;;;;;;5102201;27;20107;-81
2023/09/15 02:54:28;;;;;;;8.43;3.72;;;15.20;99.90;;;;;;5115658;27;20039;-81
2023/09/15 02:56:54;;;;;;;7.13;4.40;;;15.20;99.90;;;;;;5105644;27;20122;-81
2023/09/15 02:59:20;;;;;;;6.82;3.97;;;15.10;99.90;;;;;;5107498;27;20639;-80
2023/09/15 03:01:45;;;;;;;6.45;3.95;;;15.10;99.90;;;;;;5100581;27;20072;-81
2023/09/15 03:04:11;;;;;;;9.57;3.78;;;15.10;99.90;;;;;;5089576;27;20035;-81
2023/09/15 03:06:40;;;;;;;6.90;5.22;;;15.10;99.90;;;;;;5109628;27;20161;-83
2023/09/15 03:09:06;;;;;;;8.35;4.60;;;15.00;99.90;;;;;;5094446;27;20035;-80
2023/09/15 03:11:32;;;;;;;7.95;4.75;;;15.00;99.90;;;;;;5099621;27;20031;-83
2023/09/15 03:13:58;;;;;;;8.50;4.10;;;15.00;99.90;;;;;;5087417;27;20035;-81
2023/09/15 03:16:26;;;;;;;8.50;4.18;;;15.00;99.90;;;;;;5098090;27;20057;-82
2023/09/15 03:18:51;;;;;;;6.47;4.55;;;15.00;99.90;;;;;;5115113;27;20023;-81
2023/09/15 03:21:17;;;;;;;6.95;4.25;;;14.90;99.90;;;;;;5109919;27;20445;-82
2023/09/15 03:23:43;;;;;;;7.95;4.57;;;14.90;99.90;;;;;;5106517;27;20117;-82
2023/09/15 03:26:09;;;;;;;5.65;4.15;;;14.90;99.90;;;;;;5085270;27;20054;-81
2023/09/15 03:28:36;;;;;;;5.10;3.65;;;14.90;99.90;;;;;;5105679;27;20596;-78
2023/09/15 03:31:03;;;;;;;5.68;4.03;;;14.90;99.90;;;;;;5097240;27;20127;-80
2023/09/15 03:33:30;;;;;;;5.35;3.95;;;14.90;99.90;;;;;;5087327;27;20035;-79
2023/09/15 03:35:57;;;;;;;6.22;4.43;;;14.90;99.90;;;;;;5122238;27;20099;-79
2023/09/15 03:38:22;;;;;;;10.88;4.93;;;14.90;99.90;;;;;;5109411;27;20039;-81
2023/09/15 03:40:48;;;;;;;5.68;4.43;;;14.90;99.90;;;;;;5096051;27;20612;-80
2023/09/15 03:43:14;;;;;;;6.55;5.03;;;14.90;99.90;;;;;;5106870;27;20035;-81
2023/09/15 03:45:42;;;;;;;6.95;4.40;;;14.80;99.90;;;;;;5095697;28;20046;-80
2023/09/15 03:48:08;;;;;;;7.28;4.60;;;14.80;99.90;;;;;;5125584;27;20418;-80
2023/09/15 03:50:33;;;;;;;7.72;4.60;;;14.80;99.90;;;;;;5111126;27;20126;-81
2023/09/15 03:52:59;;;;;;;5.55;4.65;;;14.80;99.90;;;;;;5115937;27;20129;-79
2023/09/15 03:55:25;;;;;;;5.70;4.45;;;14.90;99.90;;;;;;5101750;28;20050;-77
2023/09/15 03:57:52;;;;;;;5.80;4.25;;;14.80;99.90;;;;;;5104928;27;20070;-80
2023/09/15 04:00:19;;;;;;;5.60;4.53;;;14.80;99.90;;;;;;5097210;27;20174;-80
2023/09/15 04:02:45;;;;;;;8.80;4.70;;;14.80;99.90;;;;;;5116649;28;20043;-80
2023/09/15 04:05:10;;;;;;;7.30;4.43;;;14.80;99.90;;;;;;5101972;28;20080;-82
2023/09/15 04:07:40;;;;;;;8.55;4.70;;;14.80;99.90;;;;;;5097676;27;20058;-82
2023/09/15 04:10:07;;;;;;;7.22;4.70;;;14.80;99.90;;;;;;5134017;27;20030;-82
2023/09/15 04:12:34;;;;;;;6.07;4.47;;;14.80;99.90;;;;;;5135551;27;20072;-83
2023/09/15 04:15:00;;;;;;;9.38;4.93;;;14.80;99.90;;;;;;5134017;27;20117;-82
2023/09/15 04:17:26;;;;;;;7.43;4.85;;;14.80;99.90;;;;;;5101692;27;20627;-79
2023/09/15 04:19:52;;;;;;;6.45;4.80;;;14.70;99.90;;;;;;5090161;27;20044;-79
2023/09/15 04:22:17;;;;;;;7.80;4.88;;;14.70;99.90;;;;;;5116515;27;20079;-83
2023/09/15 04:24:43;;;;;;;7.93;4.82;;;14.70;99.90;;;;;;5101025;27;20047;-81
2023/09/15 04:27:08;;;;;;;6.65;4.93;;;14.70;99.90;;;;;;5095744;27;20035;-80
2023/09/15 04:29:49;;;;;;;6.32;4.88;;;14.70;99.90;;;;;;5087666;27;20521;-77
2023/09/15 04:32:14;;;;;;;6.85;4.82;;;14.70;99.90;;;;;;5115647;27;20106;-79
2023/09/15 04:34:40;;;;;;;6.75;5.03;;;14.60;99.90;;;;;;5113032;27;20133;-82
2023/09/15 04:37:06;;;;;;;8.38;5.40;;;14.60;99.90;;;;;;5116736;27;20038;-81
2023/09/15 04:39:31;;;;;;;9.48;5.75;;;14.60;99.90;;;;;;5119040;27;20099;-79
2023/09/15 04:41:57;;;;;;;6.32;5.50;;;14.60;99.90;;;;;;5084632;27;20073;-79
2023/09/15 04:44:23;;;;;;;8.13;5.80;;;14.60;99.90;;;;;;5093784;27;20035;-80
2023/09/15 04:46:49;;;;;;;8.68;5.65;;;14.60;99.90;;;;;;5113748;27;20168;-81
2023/09/15 04:49:15;;;;;;;8.02;5.72;;;14.60;99.90;;;;;;5143585;27;20385;-80
2023/09/15 04:51:41;;;;;;;7.43;5.68;;;14.50;99.90;;;;;;5135218;27;20038;-80
2023/09/15 04:54:07;;;;;;;9.82;6.20;;;14.60;99.90;;;;;;5104423;27;20054;-80
2023/09/15 04:56:32;;;;;;;8.30;6.00;;;14.50;99.90;;;;;;5110287;27;20070;-79
2023/09/15 04:58:58;;;;;;;10.00;6.55;;;14.50;99.90;;;;;;5094886;27;20145;-79
2023/09/15 05:01:24;;;;;;;8.02;6.00;;;14.50;99.90;;;;;;5079794;27;20083;-79
2023/09/15 05:03:50;;;;;;;11.25;6.35;;;14.50;99.90;;;;;;5111878;27;20054;-79
2023/09/15 05:06:16;;;;;;;8.35;6.72;;;14.60;99.90;;;;;;5130903;27;20038;-80
2023/09/15 05:08:43;;;;;;;7.03;5.75;;;14.50;99.90;;;;;;5113472;27;20046;-78
2023/09/15 05:11:12;;;;;;;10.13;6.53;;;14.40;99.90;;;;;;5121046;27;20027;-79
2023/09/15 05:13:38;;;;;;;7.57;5.90;;;14.60;99.90;;;;;;5083752;27;20055;-79
2023/09/15 05:16:03;;;;;;;10.07;6.43;;;14.50;99.90;;;;;;5096215;27;20039;-81
2023/09/15 05:18:30;;;;;;;10.43;7.25;;;14.60;99.90;;;;;;5108606;27;20635;-79
2023/09/15 05:20:56;;;;;;;10.88;7.47;;;14.60;99.90;;;;;;5140490;27;20086;-78
2023/09/15 05:23:22;;;;;;;8.40;6.75;;;14.60;99.90;;;;;;5123660;27;20454;-81
2023/09/15 05:25:52;;;;;;;10.55;6.68;;;14.60;99.90;;;;;;5081736;27;20152;-78
2023/09/15 05:28:19;;;;;;;8.13;6.65;;;14.60;99.90;;;;;;5130312;27;20395;-78
2023/09/15 05:30:44;;;;;;;8.02;6.28;;;14.60;99.90;;;;;;5129783;27;20035;-81
2023/09/15 05:33:10;;;;;;;10.40;7.07;;;14.60;99.90;;;;;;5112396;27;20429;-80
2023/09/15 05:35:36;;;;;;;7.95;6.18;;;14.60;99.90;;;;;;5085461;27;20053;-78
2023/09/15 05:38:02;;;;;;;8.02;6.53;;;14.70;99.90;;;;;;5116565;27;20042;-78
2023/09/15 05:40:28;;;;;;;8.55;6.78;;;14.70;99.90;;;;;;5126677;27;20455;-79
2023/09/15 05:42:54;;;;;;;11.60;6.90;;;14.80;99.90;;;;;;5095201;27;20081;-78
2023/09/15 05:45:20;;;;;;;10.25;7.15;;;14.80;99.90;;;;;;5124306;27;20088;-78
2023/09/15 05:47:46;;;;;;;8.90;6.50;;;14.90;99.90;;;;;;5127286;27;20047;-79
2023/09/15 05:50:11;;;;;;;9.43;6.82;;;14.90;99.90;;;;;;5125810;27;20034;-78
2023/09/15 05:52:37;;;;;;;9.52;6.63;;;15.00;99.90;;;;;;5095222;27;20039;-79
2023/09/15 05:55:04;;;;;;;9.38;6.88;;;15.00;99.90;;;;;;5089656;27;20031;-80
2023/09/15 05:57:30;;;;;;;8.00;7.13;;;15.00;99.90;;;;;;5132886;27;20091;-81
2023/09/15 05:59:56;;;;;;;9.43;7.10;;;15.00;99.90;;;;;;5112818;27;20057;-80
2023/09/15 06:02:22;;;;;;;10.40;7.32;;;15.10;99.90;;;;;;5108738;27;20048;-80
2023/09/15 06:04:49;;;;;;;11.68;7.05;;;15.20;99.90;;;;;;5080516;27;20097;-82
2023/09/15 06:07:15;;;;;;;10.68;7.45;;;15.20;99.90;;;;;;5106791;27;20039;-82
2023/09/15 06:09:41;;;;;;;7.32;6.63;;;15.30;99.90;;;;;;5110753;27;20039;-82
2023/09/15 06:12:06;;;;;;;9.10;6.95;;;15.20;99.90;;;;;;5073110;28;20054;-80
2023/09/15 06:14:35;;;;;;;10.40;7.25;;;15.40;99.90;;;;;;5113104;27;20035;-79
2023/09/15 06:17:02;;;;;;;11.93;7.88;;;15.40;99.90;;;;;;5074006;28;20089;-82
2023/09/15 06:19:28;;;;;;;16.00;8.23;;;15.50;99.90;;;;;;5130862;27;20425;-80
2023/09/15 06:21:54;;;;;;;10.75;8.00;;;15.60;99.90;;;;;;5109293;27;20041;-81
2023/09/15 06:24:20;;;;;;;9.63;8.13;;;15.60;99.90;;;;;;5111449;27;20123;-80
2023/09/15 06:26:47;;;;;;;9.00;7.22;;;15.60;99.90;;;;;;5101949;27;20122;-81
2023/09/15 06:29:15;;;;;;;12.68;7.70;;;15.60;99.90;;;;;;5107768;27;20040;-82
2023/09/15 06:31:41;;;;;;;9.93;8.18;;;15.80;99.90;;;;;;5096956;27;20086;-81
2023/09/15 06:34:07;;;;;;;9.73;7.35;;;15.80;99.90;;;;;;5103767;27;20027;-83
2023/09/15 06:36:33;;;;;;;10.93;7.25;;;15.90;99.90;;;;;;5095030;27;20071;-81
2023/09/15 06:38:59;;;;;;;10.52;7.40;;;16.00;99.90;;;;;;5129658;27;20062;-83
2023/09/15 06:41:25;;;;;;;10.00;7.40;;;16.00;99.90;;;;;;5087139;28;20032;-81
2023/09/15 06:43:50;;;;;;;11.90;7.53;;;16.00;99.90;;;;;;5098731;28;20062;-83
2023/09/15 06:46:20;;;;;;;10.95;8.32;;;16.00;99.90;;;;;;5108310;27;20074;-82
2023/09/15 06:48:46;;;;;;;7.90;6.95;;;16.10;99.90;;;;;;5083504;27;20089;-82
2023/09/15 06:51:11;;;;;;;9.55;7.43;;;16.10;99.90;;;;;;5092452;28;20100;-81
2023/09/15 06:53:37;;;;;;;8.80;7.40;;;16.20;99.90;;;;;;5076045;28;20044;-82
2023/09/15 06:56:03;;;;;;;10.23;7.15;;;16.20;99.90;;;;;;5104651;27;20043;-83
2023/09/15 06:58:29;;;;;;;8.45;7.53;;;16.30;99.90;;;;;;5108484;27;20036;-83
2023/09/15 07:00:55;;;;;;;11.70;7.82;;;16.30;99.90;;;;;;5095682;27;20178;-82
2023/09/15 07:03:22;;;;;;;9.02;7.05;;;16.50;99.90;;;;;;5098730;28;20036;-83
2023/09/15 07:05:48;;;;;;;13.75;8.27;;;16.50;99.90;;;;;;5094817;27;20058;-82
2023/09/15 07:08:14;;;;;;;10.40;8.00;;;16.60;99.90;;;;;;5110180;27;20035;-83
2023/09/15 07:10:40;;;;;;;8.98;7.85;;;16.70;99.90;;;;;;5113279;27;20049;-82
2023/09/15 07:13:06;;;;;;;11.30;7.82;;;16.80;99.90;;;;;;5092200;28;20583;-81
2023/09/15 07:15:35;;;;;;;10.90;8.38;;;16.90;99.90;;;;;;5074953;28;20085;-82
2023/09/15 07:18:05;;;;;;;10.98;7.75;;;16.90;99.90;;;;;;5094673;27;20038;-79
2023/09/15 07:20:32;;;;;;;9.90;7.55;;;16.90;99.90;;;;;;5086813;27;20062;-83
2023/09/15 07:22:58;;;;;;;8.05;7.25;;;17.10;99.90;;;;;;5104436;27;20043;-82
2023/09/15 07:25:24;;;;;;;8.80;7.55;;;17.00;99.90;;;;;;5063689;27;20034;-84
2023/09/15 07:27:50;;;;;;;9.65;7.55;;;17.10;99.90;;;;;;5112411;27;20371;-82
2023/09/15 07:30:16;;;;;;;7.97;6.82;;;17.30;99.90;;;;;;5108465;28;20062;-81
2023/09/15 07:32:42;;;;;;;7.97;7.13;;;17.30;99.90;;;;;;5126388;27;20070;-81
2023/09/15 07:35:12;;;;;;;8.93;7.43;;;17.40;99.90;;;;;;5091311;28;20066;-82
2023/09/15 07:37:38;;;;;;;7.78;6.97;;;17.60;99.90;;;;;;5112014;27;20054;-80
2023/09/15 07:40:09;;;;;;;11.30;7.40;;;17.50;99.90;;;;;;5135406;27;20049;-82
2023/09/15 07:42:36;;;;;;;8.43;6.88;;;17.70;99.90;;;;;;5096970;28;20050;-82
2023/09/15 07:45:03;;;;;;;13.20;7.40;;;17.90;99.90;;;;;;5101212;28;20089;-82
2023/09/15 07:47:29;;;;;;;10.50;6.85;;;17.90;99.90;;;;;;5095882;28;20247;-80
2023/09/15 07:49:57;;;;;;;9.02;7.13;;;17.90;99.90;;;;;;5095170;28;20122;-82
2023/09/15 07:52:24;;;;;;;9.68;6.65;;;18.00;99.90;;;;;;5095940;28;20066;-81
2023/09/15 07:54:51;;;;;;;9.52;7.43;;;18.10;99.90;;;;;;5099212;28;20040;-82
2023/09/15 07:57:20;;;;;;;9.15;6.63;;;18.40;99.90;;;;;;5106598;28;20031;-82
2023/09/15 07:59:45;;;;;;;12.55;7.85;;;18.20;99.90;;;;;;5093430;27;20043;-81
2023/09/15 08:02:13;;;;;;;8.27;6.70;;;18.40;99.90;;;;;;5092394;28;20047;-83
2023/09/15 08:04:39;;;;;;;11.38;7.28;;;18.40;99.90;;;;;;5088561;28;20495;-84
2023/09/15 08:07:06;;;;;;;12.02;7.07;;;18.50;99.90;;;;;;5095502;28;20055;-81
2023/09/15 08:09:32;;;;;;;9.90;5.88;;;18.50;99.90;;;;;;5088591;27;20511;-82
2023/09/15 08:12:00;;;;;;;9.23;6.35;;;18.60;99.90;;;;;;5074161;28;20071;-81
2023/09/15 08:14:30;;;;;;;9.00;6.88;;;18.70;99.90;;;;;;5060444;28;20035;-83
2023/09/15 08:16:55;;;;;;;7.93;6.18;;;18.80;99.90;;;;;;5095799;28;20368;-82
2023/09/15 08:19:21;;;;;;;10.75;6.57;;;18.80;99.90;;;;;;5064827;27;20058;-81
2023/09/15 08:21:48;;;;;;;8.98;6.40;;;19.00;99.90;;;;;;5112195;28;20043;-83
2023/09/15 08:24:14;;;;;;;9.20;6.05;;;19.10;99.90;;;;;;5111785;28;20039;-82
2023/09/15 08:26:39;;;;;;;7.90;5.85;;;19.10;99.90;;;;;;5104447;28;20036;-81
2023/09/15 08:29:05;;;;;;;9.80;5.97;;;19.20;99.90;;;;;;5108693;28;20032;-84
2023/09/15 08:31:32;;;;;;;10.02;5.60;;;19.30;99.90;;;;;;5088590;28;20493;-81
2023/09/15 08:33:59;;;;;;;7.80;5.43;;;19.50;99.90;;;;;;5108621;28;20044;-83
2023/09/15 08:36:26;;;;;;;7.32;5.63;;;19.50;99.90;;;;;;5108555;28;20043;-83
2023/09/15 08:38:52;;;;;;;8.00;5.10;;;19.50;99.90;;;;;;5112110;28;20057;-81
2023/09/15 08:41:29;;;;;;;7.10;5.20;;;19.70;99.90;;;;;;5091768;28;20043;-82
2023/09/15 08:43:56;;;;;;;8.30;4.75;;;19.70;99.90;;;;;;5115211;27;20051;-81
2023/09/15 08:46:25;;;;;;;8.63;5.70;;;19.80;99.90;;;;;;5108065;28;20142;-83
2023/09/15 08:48:55;;;;;;;9.35;5.03;;;19.80;99.90;;;;;;5091560;28;20122;-83
2023/09/15 08:51:23;;;;;;;5.93;4.53;;;20.00;99.90;;;;;;5147832;27;20561;-82
2023/09/15 08:53:51;;;;;;;9.00;4.85;;;20.10;99.90;;;;;;5115795;27;20039;-83
2023/09/15 08:56:17;;;;;;;10.43;5.90;;;20.10;99.90;;;;;;5112330;28;20406;-82
2023/09/15 08:58:44;;;;;;;6.55;4.70;;;20.30;99.90;;;;;;5095333;28;20054;-82
2023/09/15 09:01:12;;;;;;;8.15;4.80;;;20.30;99.90;;;;;;5110835;27;20524;-83
2023/09/15 09:03:39;;;;;;;7.40;4.55;;;20.50;99.90;;;;;;5113714;27;20126;-81
2023/09/15 09:06:09;;;;;;;6.53;4.18;;;20.50;99.90;;;;;;5096060;28;20503;-82
2023/09/15 09:08:39;;;;;;;5.50;4.43;;;20.60;99.90;;;;;;5111404;27;20039;-85
2023/09/15 09:11:05;;;;;;;8.15;4.68;;;20.80;99.90;;;;;;5110002;27;20054;-83
2023/09/15 09:13:31;;;;;;;9.68;4.25;;;20.90;99.90;;;;;;5153377;27;20035;-83
2023/09/15 09:16:00;;;;;;;7.80;3.28;;;21.00;99.90;;;;;;5136750;27;20042;-84
2023/09/15 09:18:26;;;;;;;6.28;3.40;;;21.10;99.90;;;;;;5133330;27;20032;-87
2023/09/15 09:20:52;;;;;;;6.18;3.20;;;21.20;99.90;;;;;;5122410;27;20042;-87
2023/09/15 09:23:19;;;;;;;6.68;3.42;;;21.20;99.90;;;;;;5118797;27;20075;-84
2023/09/15 09:25:45;;;;;;;5.90;3.20;;;21.30;99.90;;;;;;5152253;27;20039;-83
2023/09/15 09:28:12;;;;;;;4.93;2.72;;;21.50;99.90;;;;;;5125867;27;20118;-85
2023/09/15 09:30:38;;;;;;;5.28;3.30;;;21.50;99.90;;;;;;5114002;27;20039;-84
2023/09/15 09:33:05;;;;;;;7.57;3.88;;;21.60;99.90;;;;;;5114570;27;20122;-83
2023/09/15 09:35:34;;;;;;;5.57;3.70;;;21.60;99.90;;;;;;5131900;27;20431;-84
2023/09/15 09:38:01;;;;;;;6.97;3.00;;;21.70;99.90;;;;;;5111927;27;20090;-84
2023/09/15 09:40:36;;;;;;;5.38;2.60;;;21.80;99.90;;;;;;5114503;27;20428;-84
2023/09/15 09:43:08;;;;;;;5.28;2.78;;;22.20;99.90;;;;;;5113321;27;20104;-85
2023/09/15 09:45:40;;;;;;;3.63;2.53;;;22.10;99.90;;;;;;5131509;27;20479;-86
2023/09/15 09:48:09;;;;;;;5.82;2.85;;;22.40;99.90;;;;;;5084081;27;20049;-84
2023/09/15 09:50:36;;;;;;;7.53;3.00;;;22.60;99.90;;;;;;5098088;27;20384;-84
2023/09/15 09:53:10;;;;;;;5.00;3.08;;;22.60;99.90;;;;;;5095464;27;20465;-84
2023/09/15 09:56:29;;;;;;;;;;;;;;;;;;;;;
2023/09/15 09:59:28;;;;;;;6.25;3.22;;;22.40;99.90;;;;;;5129810;27;20402;-85
2023/09/15 10:02:03;;;;;;;6.85;3.13;;;22.90;99.90;;;;;;5132195;27;20530;-84
2023/09/15 10:04:32;;;;;;;6.03;3.25;;;23.20;99.90;;;;;;5096067;27;20050;-84
2023/09/15 10:06:58;;;;;;;6.05;3.22;;;23.20;99.90;;;;;;5083446;27;20119;-84
2023/09/15 10:09:30;;;;;;;6.63;3.45;;;22.70;99.90;;;;;;5115854;27;20031;-84
2023/09/15 10:12:18;;;;;;;7.15;3.63;;;23.60;99.90;;;;;;5127162;27;20053;-83
2023/09/15 10:14:44;;;;;;;5.75;3.70;;;23.80;99.90;;;;;;5105311;27;20037;-85
2023/09/15 10:17:11;;;;;;;4.03;2.80;;;23.90;99.90;;;;;;5115320;27;20039;-85
2023/09/15 10:20:06;;;;;;;8.35;3.58;;;24.00;99.90;;;;;;5097552;27;20077;-83
2023/09/15 10:22:32;;;;;;;5.60;3.05;;;23.60;99.90;;;;;;5096928;27;20038;-86
2023/09/15 10:25:06;;;;;;;6.65;3.28;;;23.60;99.90;;;;;;5114301;27;20031;-85
2023/09/15 10:27:33;;;;;;;7.18;3.50;;;23.60;99.90;;;;;;5088444;27;20085;-88
2023/09/15 10:30:48;;;;;;;4.57;2.80;;;23.40;99.90;;;;;;5113876;27;20082;-86
2023/09/15 10:33:18;;;;;;;3.83;2.60;;;23.60;99.90;;;;;;5105327;27;20122;-86
2023/09/15 10:35:48;;;;;;;4.97;2.90;;;23.70;99.90;;;;;;5095105;27;20042;-85
2023/09/15 10:38:28;;;;;;;6.03;2.95;;;23.50;99.90;;;;;;5114711;27;20039;-86
2023/09/15 10:40:58;;;;;;;5.30;3.47;;;24.10;99.90;;;;;;5097723;27;20126;-87
2023/09/15 10:43:26;;;;;;;6.22;3.08;;;24.00;99.90;;;;;;5093290;27;20039;-85
2023/09/15 10:46:04;;;;;;;4.65;2.63;;;24.20;99.90;;;;;;5112316;27;20035;-85
2023/09/15 10:48:46;;;;;;;7.00;2.75;;;24.30;99.90;;;;;;5107703;27;20376;-82
2023/09/15 10:51:46;;;;;;;3.53;2.40;;;24.40;96.70;;;;;;5111814;27;20035;-84
2023/09/15 10:54:12;;;;;;;3.92;2.20;;;24.50;99.90;;;;;;5113211;27;20077;-82
2023/09/15 10:56:38;;;;;;;4.55;2.78;;;24.10;97.20;;;;;;5096798;27;20071;-83
2023/09/15 10:59:04;;;;;;;4.68;2.50;;;24.40;99.90;;;;;;5104408;27;20077;-83
2023/09/15 11:01:32;;;;;;;4.15;2.30;;;24.40;99.90;;;;;;5113748;27;20074;-84
2023/09/15 11:04:02;;;;;;;5.95;2.80;;;24.40;99.90;;;;;;5078991;27;20510;-83
2023/09/15 11:06:29;;;;;;;3.95;2.65;;;24.40;99.90;;;;;;5111402;27;20054;-84
2023/09/15 11:09:17;;;;;;;2.83;2.30;;;24.20;99.90;;;;;;5092958;28;20054;-84
2023/09/15 11:12:06;;;;;;;6.90;2.70;;;24.00;96.60;;;;;;5116716;27;20142;-84
2023/09/15 11:14:32;;;;;;;3.75;2.33;;;23.90;99.90;;;;;;5133491;27;20121;-83
2023/09/15 11:16:58;;;;;;;2.95;2.40;;;24.10;99.90;;;;;;5133804;27;20197;-84
2023/09/15 11:19:29;;;;;;;4.35;2.20;;;24.10;99.90;;;;;;5127467;27;20046;-84
2023/09/15 11:21:54;;;;;;;5.35;2.50;;;24.00;99.90;;;;;;5092854;28;20043;-84
2023/09/15 11:24:31;;;;;;;6.10;2.60;;;24.00;99.90;;;;;;5093059;28;20372;-84
2023/09/15 11:26:58;;;;;;;6.75;2.72;;;23.90;99.90;;;;;;5094377;28;20373;-84
2023/09/15 11:29:31;;;;;;;4.85;2.65;;;24.10;99.90;;;;;;5096949;27;20792;-83
2023/09/15 11:31:58;;;;;;;3.40;2.27;;;24.10;99.90;;;;;;5101271;27;20034;-84
2023/09/15 11:34:25;;;;;;;4.28;2.47;;;24.10;94.60;;;;;;5103635;27;20036;-84
2023/09/15 11:36:56;;;;;;;3.55;2.35;;;24.10;99.90;;;;;;5093817;28;20444;-84
2023/09/15 11:39:22;;;;;;;5.95;2.30;;;24.10;94.60;;;;;;5093717;28;20046;-85
2023/09/15 11:41:53;;;;;;;4.95;2.80;;;24.10;99.90;;;;;;5093417;28;20040;-83
2023/09/15 11:44:26;;;;;;;7.07;3.00;;;24.20;99.90;;;;;;5111563;28;20042;-86
2023/09/15 11:46:55;;;;;;;4.63;2.20;;;24.10;99.90;;;;;;5093961;28;20515;-85
2023/09/15 11:49:22;;;;;;;5.53;2.80;;;23.90;99.90;;;;;;5094084;28;20096;-85
2023/09/15 11:51:49;;;;;;;4.07;2.33;;;23.70;99.90;;;;;;5110625;28;20040;-87
2023/09/15 11:54:15;;;;;;;3.83;2.47;;;23.80;99.90;;;;;;5125870;28;20035;-85
2023/09/15 11:56:43;;;;;;;3.63;2.40;;;23.80;99.90;;;;;;5131045;28;20043;-86
2023/09/15 11:59:09;;;;;;;5.43;2.72;;;23.80;94.90;;;;;;5097012;28;20035;-85
2023/09/15 12:01:36;;;;;;;6.35;2.25;;;23.70;97.80;;;;;;5130440;27;20373;-84
2023/09/15 12:04:03;;;;;;;5.22;2.88;;;23.70;99.70;;;;;;5115517;28;20035;-84
2023/09/15 12:06:32;;;;;;;7.78;2.60;;;23.80;99.90;;;;;;5109265;28;20123;-86
2023/09/15 12:08:57;;;;;;;4.20;2.33;;;23.80;99.90;;;;;;5113213;28;20095;-85
2023/09/15 12:11:24;;;;;;;5.28;3.00;;;23.80;99.90;;;;;;5113343;28;20646;-84
2023/09/15 12:13:54;;;;;;;4.25;2.17;;;23.80;96.20;;;;;;5113563;28;20062;-84
2023/09/15 12:16:27;;;;;;;5.25;2.38;;;23.80;99.70;;;;;;5109557;28;20035;-85
2023/09/15 12:18:53;;;;;;;3.47;2.05;;;23.90;99.90;;;;;;5099963;28;20047;-86
2023/09/15 12:21:24;;;;;;;5.05;2.40;;;24.00;97.50;;;;;;5113764;28;20046;-86
2023/09/15 12:23:54;;;;;;;4.28;2.60;;;23.80;99.00;;;;;;5113244;28;20142;-85
2023/09/15 12:26:25;;;;;;;4.60;2.70;;;24.00;99.90;;;;;;5125027;28;20039;-84
2023/09/15 12:28:53;;;;;;;5.72;2.88;;;23.80;99.90;;;;;;5111111;27;20066;-86
2023/09/15 12:31:23;;;;;;;3.75;2.33;;;23.80;99.90;;;;;;5134345;27;20348;-84
2023/09/15 12:33:53;;;;;;;3.95;2.58;;;23.70;99.90;;;;;;5116629;27;20039;-84
2023/09/15 12:36:20;;;;;;;4.50;2.30;;;23.70;99.90;;;;;;5101710;27;20481;-84
2023/09/15 12:38:46;;;;;;;4.55;2.47;;;23.70;99.90;;;;;;5118221;27;20085;-84
2023/09/15 12:41:13;;;;;;;5.25;2.33;;;23.70;99.90;;;;;;5100222;27;20088;-84
2023/09/15 12:43:45;;;;;;;5.22;3.08;;;23.80;99.90;;;;;;5116315;27;20042;-84
2023/09/15 12:46:11;;;;;;;5.20;2.55;;;23.80;99.90;;;;;;5130840;27;20035;-84
2023/09/15 12:48:38;;;;;;;6.82;2.67;;;24.00;99.90;;;;;;5078578;28;20122;-85
2023/09/15 12:51:04;;;;;;;4.85;2.63;;;24.10;99.90;;;;;;5089050;27;20035;-85